sensor_id;sensor_type;location;lat;lon;timestamp;temperature;humidity
44843;DHT22;31884;52.538;13.820;2023-05-18T00:02:07;5.90;83.70
44843;DHT22;31884;52.538;13.820;2023-05-18T00:04:33;5.90;83.20
44843;DHT22;31884;52.538;13.820;2023-05-18T00:07:01;5.90;85.40
44843;DHT22;31884;52.538;13.820;2023-05-18T00:09:35;5.90;84.50
44843;DHT22;31884;52.538;13.820;2023-05-18T00:12:03;5.80;83.30
44843;DHT22;31884;52.538;13.820;2023-05-18T00:14:30;5.90;83.10
44843;DHT22;31884;52.538;13.820;2023-05-18T00:16:56;5.80;83.30
44843;DHT22;31884;52.538;13.820;2023-05-18T00:19:23;5.80;82.80
44843;DHT22;31884;52.538;13.820;2023-05-18T00:21:50;5.80;83.50
44843;DHT22;31884;52.538;13.820;2023-05-18T00:24:20;5.80;83.80
44843;DHT22;31884;52.538;13.820;2023-05-18T00:26:47;5.80;83.80
44843;DHT22;31884;52.538;13.820;2023-05-18T00:29:16;5.80;83.40
44843;DHT22;31884;52.538;13.820;2023-05-18T00:31:42;5.70;84.80
44843;DHT22;31884;52.538;13.820;2023-05-18T00:34:12;5.80;85.30
44843;DHT22;31884;52.538;13.820;2023-05-18T00:36:38;5.80;85.00
44843;DHT22;31884;52.538;13.820;2023-05-18T00:39:04;5.70;84.20
44843;DHT22;31884;52.538;13.820;2023-05-18T00:41:32;5.70;83.80
44843;DHT22;31884;52.538;13.820;2023-05-18T00:43:58;5.70;83.90
44843;DHT22;31884;52.538;13.820;2023-05-18T00:46:25;5.70;86.70
44843;DHT22;31884;52.538;13.820;2023-05-18T00:48:54;5.60;86.20
44843;DHT22;31884;52.538;13.820;2023-05-18T00:51:23;5.70;86.50
44843;DHT22;31884;52.538;13.820;2023-05-18T00:53:52;5.60;86.40
44843;DHT22;31884;52.538;13.820;2023-05-18T00:56:19;5.60;87.00
44843;DHT22;31884;52.538;13.820;2023-05-18T00:58:46;5.50;87.30
44843;DHT22;31884;52.538;13.820;2023-05-18T01:01:13;5.50;87.80
44843;DHT22;31884;52.538;13.820;2023-05-18T01:03:43;5.50;89.40
44843;DHT22;31884;52.538;13.820;2023-05-18T01:06:08;5.50;90.10
44843;DHT22;31884;52.538;13.820;2023-05-18T01:08:35;5.40;88.70
44843;DHT22;31884;52.538;13.820;2023-05-18T01:13:46;5.40;87.80
44843;DHT22;31884;52.538;13.820;2023-05-18T01:16:19;5.40;87.90
44843;DHT22;31884;52.538;13.820;2023-05-18T01:18:49;5.40;89.10
44843;DHT22;31884;52.538;13.820;2023-05-18T01:24:47;5.30;89.80
44843;DHT22;31884;52.538;13.820;2023-05-18T01:27:16;5.30;90.90
44843;DHT22;31884;52.538;13.820;2023-05-18T01:29:44;5.20;92.80
44843;DHT22;31884;52.538;13.820;2023-05-18T01:32:17;5.20;91.40
44843;DHT22;31884;52.538;13.820;2023-05-18T01:34:43;5.20;90.80
44843;DHT22;31884;52.538;13.820;2023-05-18T01:37:08;5.20;91.30
44843;DHT22;31884;52.538;13.820;2023-05-18T01:39:34;5.20;91.30
44843;DHT22;31884;52.538;13.820;2023-05-18T01:42:05;5.20;91.20
44843;DHT22;31884;52.538;13.820;2023-05-18T01:44:39;5.10;90.60
44843;DHT22;31884;52.538;13.820;2023-05-18T01:47:15;5.10;90.60
44843;DHT22;31884;52.538;13.820;2023-05-18T01:52:36;5.10;90.90
44843;DHT22;31884;52.538;13.820;2023-05-18T01:55:04;5.10;90.80
44843;DHT22;31884;52.538;13.820;2023-05-18T01:57:34;5.00;92.20
44843;DHT22;31884;52.538;13.820;2023-05-18T02:00:03;5.00;92.00
44843;DHT22;31884;52.538;13.820;2023-05-18T02:02:33;5.00;91.60
44843;DHT22;31884;52.538;13.820;2023-05-18T02:04:59;5.00;91.30
44843;DHT22;31884;52.538;13.820;2023-05-18T02:07:24;5.00;92.30
44843;DHT22;31884;52.538;13.820;2023-05-18T02:09:53;4.90;92.80
44843;DHT22;31884;52.538;13.820;2023-05-18T02:12:18;4.90;92.00
44843;DHT22;31884;52.538;13.820;2023-05-18T02:14:44;4.90;92.90
44843;DHT22;31884;52.538;13.820;2023-05-18T02:17:09;4.90;93.90
44843;DHT22;31884;52.538;13.820;2023-05-18T02:19:37;4.80;94.40
44843;DHT22;31884;52.538;13.820;2023-05-18T02:22:04;4.80;93.40
44843;DHT22;31884;52.538;13.820;2023-05-18T02:24:33;4.80;93.10
44843;DHT22;31884;52.538;13.820;2023-05-18T02:26:59;4.80;93.30
44843;DHT22;31884;52.538;13.820;2023-05-18T02:29:25;4.80;93.50
44843;DHT22;31884;52.538;13.820;2023-05-18T02:31:52;4.70;93.10
44843;DHT22;31884;52.538;13.820;2023-05-18T02:34:18;4.70;93.60
44843;DHT22;31884;52.538;13.820;2023-05-18T02:36:46;4.70;93.60
44843;DHT22;31884;52.538;13.820;2023-05-18T02:39:13;4.60;93.50
44843;DHT22;31884;52.538;13.820;2023-05-18T02:41:38;4.60;93.90
44843;DHT22;31884;52.538;13.820;2023-05-18T02:44:04;4.60;94.10
44843;DHT22;31884;52.538;13.820;2023-05-18T02:46:30;4.60;94.00
44843;DHT22;31884;52.538;13.820;2023-05-18T02:48:58;4.50;93.70
44843;DHT22;31884;52.538;13.820;2023-05-18T02:51:24;4.50;93.90
44843;DHT22;31884;52.538;13.820;2023-05-18T02:53:50;4.50;93.90
44843;DHT22;31884;52.538;13.820;2023-05-18T02:56:17;4.40;94.50
44843;DHT22;31884;52.538;13.820;2023-05-18T02:58:43;4.40;96.00
44843;DHT22;31884;52.538;13.820;2023-05-18T03:01:09;4.30;94.90
44843;DHT22;31884;52.538;13.820;2023-05-18T03:03:37;4.30;94.70
44843;DHT22;31884;52.538;13.820;2023-05-18T03:06:04;4.30;94.60
44843;DHT22;31884;52.538;13.820;2023-05-18T03:08:31;4.20;94.90
44843;DHT22;31884;52.538;13.820;2023-05-18T03:10:58;4.20;95.10
44843;DHT22;31884;52.538;13.820;2023-05-18T03:13:23;4.20;96.60
44843;DHT22;31884;52.538;13.820;2023-05-18T03:15:50;4.10;95.90
44843;DHT22;31884;52.538;13.820;2023-05-18T03:18:17;4.10;96.00
44843;DHT22;31884;52.538;13.820;2023-05-18T03:20:46;4.10;96.60
44843;DHT22;31884;52.538;13.820;2023-05-18T03:23:13;4.00;96.50
44843;DHT22;31884;52.538;13.820;2023-05-18T03:25:38;4.00;96.80
44843;DHT22;31884;52.538;13.820;2023-05-18T03:28:04;4.10;97.40
44843;DHT22;31884;52.538;13.820;2023-05-18T03:30:33;4.10;97.10
44843;DHT22;31884;52.538;13.820;2023-05-18T03:32:59;4.10;99.90
44843;DHT22;31884;52.538;13.820;2023-05-18T03:35:26;4.10;99.90
44843;DHT22;31884;52.538;13.820;2023-05-18T03:37:52;4.10;99.90
44843;DHT22;31884;52.538;13.820;2023-05-18T03:40:18;4.10;99.40
44843;DHT22;31884;52.538;13.820;2023-05-18T03:42:44;4.20;98.90
44843;DHT22;31884;52.538;13.820;2023-05-18T03:45:10;4.20;98.50
44843;DHT22;31884;52.538;13.820;2023-05-18T03:47:37;4.30;98.70
44843;DHT22;31884;52.538;13.820;2023-05-18T03:50:04;4.30;99.30
44843;DHT22;31884;52.538;13.820;2023-05-18T03:52:32;4.40;99.40
44843;DHT22;31884;52.538;13.820;2023-05-18T03:55:02;4.50;99.50
44843;DHT22;31884;52.538;13.820;2023-05-18T03:57:28;5.00;99.90
44843;DHT22;31884;52.538;13.820;2023-05-18T03:59:54;5.40;99.70
44843;DHT22;31884;52.538;13.820;2023-05-18T04:02:19;6.00;99.30
44843;DHT22;31884;52.538;13.820;2023-05-18T04:04:45;6.70;97.00
44843;DHT22;31884;52.538;13.820;2023-05-18T04:07:14;7.30;94.80
44843;DHT22;31884;52.538;13.820;2023-05-18T04:09:43;8.00;92.40
44843;DHT22;31884;52.538;13.820;2023-05-18T04:12:09;8.70;90.20
44843;DHT22;31884;52.538;13.820;2023-05-18T04:14:35;9.30;84.60
44843;DHT22;31884;52.538;13.820;2023-05-18T04:17:03;9.80;81.10
44843;DHT22;31884;52.538;13.820;2023-05-18T04:19:34;10.50;79.40
44843;DHT22;31884;52.538;13.820;2023-05-18T04:22:00;11.00;75.60
44843;DHT22;31884;52.538;13.820;2023-05-18T04:24:30;11.60;74.70
44843;DHT22;31884;52.538;13.820;2023-05-18T04:26:57;12.30;71.70
44843;DHT22;31884;52.538;13.820;2023-05-18T04:29:23;12.80;70.00
44843;DHT22;31884;52.538;13.820;2023-05-18T04:31:49;13.40;68.90
44843;DHT22;31884;52.538;13.820;2023-05-18T04:34:15;13.90;65.00
44843;DHT22;31884;52.538;13.820;2023-05-18T04:36:43;14.50;63.50
44843;DHT22;31884;52.538;13.820;2023-05-18T04:39:10;15.00;60.90
44843;DHT22;31884;52.538;13.820;2023-05-18T04:41:38;15.60;59.10
44843;DHT22;31884;52.538;13.820;2023-05-18T04:44:06;16.00;56.30
44843;DHT22;31884;52.538;13.820;2023-05-18T04:46:32;16.40;53.40
44843;DHT22;31884;52.538;13.820;2023-05-18T04:48:59;16.90;52.80
44843;DHT22;31884;52.538;13.820;2023-05-18T04:51:25;17.30;50.90
44843;DHT22;31884;52.538;13.820;2023-05-18T04:53:52;17.70;47.30
44843;DHT22;31884;52.538;13.820;2023-05-18T04:56:21;18.00;45.10
44843;DHT22;31884;52.538;13.820;2023-05-18T04:58:48;18.40;42.80
44843;DHT22;31884;52.538;13.820;2023-05-18T05:01:14;18.80;40.00
44843;DHT22;31884;52.538;13.820;2023-05-18T05:03:43;19.20;38.10
44843;DHT22;31884;52.538;13.820;2023-05-18T05:06:09;19.80;35.70
44843;DHT22;31884;52.538;13.820;2023-05-18T05:08:36;20.30;33.90
44843;DHT22;31884;52.538;13.820;2023-05-18T05:11:03;20.70;31.40
44843;DHT22;31884;52.538;13.820;2023-05-18T05:13:28;21.20;29.60
44843;DHT22;31884;52.538;13.820;2023-05-18T05:15:54;21.60;28.20
44843;DHT22;31884;52.538;13.820;2023-05-18T05:18:20;22.10;25.70
44843;DHT22;31884;52.538;13.820;2023-05-18T05:20:46;22.40;24.20
44843;DHT22;31884;52.538;13.820;2023-05-18T05:23:12;22.50;20.30
44843;DHT22;31884;52.538;13.820;2023-05-18T05:25:38;22.70;21.10
44843;DHT22;31884;52.538;13.820;2023-05-18T05:28:03;23.10;20.30
44843;DHT22;31884;52.538;13.820;2023-05-18T05:30:29;23.50;18.70
44843;DHT22;31884;52.538;13.820;2023-05-18T05:32:55;23.90;17.60
44843;DHT22;31884;52.538;13.820;2023-05-18T05:35:20;24.10;15.80
44843;DHT22;31884;52.538;13.820;2023-05-18T05:37:46;23.90;13.70
44843;DHT22;31884;52.538;13.820;2023-05-18T05:40:11;24.10;13.60
44843;DHT22;31884;52.538;13.820;2023-05-18T05:42:37;24.50;13.40
44843;DHT22;31884;52.538;13.820;2023-05-18T05:45:03;24.90;12.40
44843;DHT22;31884;52.538;13.820;2023-05-18T05:47:29;25.20;11.30
44843;DHT22;31884;52.538;13.820;2023-05-18T05:49:56;25.30;10.60
44843;DHT22;31884;52.538;13.820;2023-05-18T05:52:21;25.50;9.90
44843;DHT22;31884;52.538;13.820;2023-05-18T05:54:47;26.00;9.10
44843;DHT22;31884;52.538;13.820;2023-05-18T05:57:12;25.80;7.50
44843;DHT22;31884;52.538;13.820;2023-05-18T05:59:38;25.90;7.40
44843;DHT22;31884;52.538;13.820;2023-05-18T06:02:04;26.20;7.30
44843;DHT22;31884;52.538;13.820;2023-05-18T06:04:31;26.50;6.40
44843;DHT22;31884;52.538;13.820;2023-05-18T06:06:56;26.30;5.60
44843;DHT22;31884;52.538;13.820;2023-05-18T06:09:22;26.60;5.40
44843;DHT22;31884;52.538;13.820;2023-05-18T06:11:47;27.20;4.80
44843;DHT22;31884;52.538;13.820;2023-05-18T06:14:13;27.80;4.70
44843;DHT22;31884;52.538;13.820;2023-05-18T06:16:38;28.40;3.80
44843;DHT22;31884;52.538;13.820;2023-05-18T06:19:04;28.80;3.20
44843;DHT22;31884;52.538;13.820;2023-05-18T06:21:29;29.10;2.90
44843;DHT22;31884;52.538;13.820;2023-05-18T06:23:56;29.40;2.00
44843;DHT22;31884;52.538;13.820;2023-05-18T06:26:22;29.60;1.70
44843;DHT22;31884;52.538;13.820;2023-05-18T06:28:48;29.60;1.30
44843;DHT22;31884;52.538;13.820;2023-05-18T06:31:14;29.40;1.00
44843;DHT22;31884;52.538;13.820;2023-05-18T06:33:43;29.50;1.00
44843;DHT22;31884;52.538;13.820;2023-05-18T06:36:08;29.40;1.00
44843;DHT22;31884;52.538;13.820;2023-05-18T06:38:34;29.10;1.00
44843;DHT22;31884;52.538;13.820;2023-05-18T06:41:01;29.60;1.00
44843;DHT22;31884;52.538;13.820;2023-05-18T06:43:27;28.70;1.00
44843;DHT22;31884;52.538;13.820;2023-05-18T06:45:53;28.90;1.00
44843;DHT22;31884;52.538;13.820;2023-05-18T06:48:26;28.90;1.00
44843;DHT22;31884;52.538;13.820;2023-05-18T06:50:52;29.20;1.00
44843;DHT22;31884;52.538;13.820;2023-05-18T06:53:18;29.40;1.00
44843;DHT22;31884;52.538;13.820;2023-05-18T06:55:43;29.70;1.00
44843;DHT22;31884;52.538;13.820;2023-05-18T06:58:09;30.40;1.00
44843;DHT22;31884;52.538;13.820;2023-05-18T07:00:34;30.80;1.00
44843;DHT22;31884;52.538;13.820;2023-05-18T07:03:00;30.90;1.00
44843;DHT22;31884;52.538;13.820;2023-05-18T07:05:26;31.10;1.00
44843;DHT22;31884;52.538;13.820;2023-05-18T07:07:52;30.00;1.00
44843;DHT22;31884;52.538;13.820;2023-05-18T07:10:17;29.60;1.00
44843;DHT22;31884;52.538;13.820;2023-05-18T07:12:43;29.10;1.00
44843;DHT22;31884;52.538;13.820;2023-05-18T07:15:09;28.40;1.00
44843;DHT22;31884;52.538;13.820;2023-05-18T07:17:36;29.10;1.00
44843;DHT22;31884;52.538;13.820;2023-05-18T07:20:02;29.80;1.00
44843;DHT22;31884;52.538;13.820;2023-05-18T07:22:30;29.20;1.00
44843;DHT22;31884;52.538;13.820;2023-05-18T07:24:55;28.70;1.00
44843;DHT22;31884;52.538;13.820;2023-05-18T07:27:22;28.80;1.00
44843;DHT22;31884;52.538;13.820;2023-05-18T07:29:48;28.70;1.00
44843;DHT22;31884;52.538;13.820;2023-05-18T07:32:14;29.40;1.00
44843;DHT22;31884;52.538;13.820;2023-05-18T07:34:39;28.90;1.00
44843;DHT22;31884;52.538;13.820;2023-05-18T07:37:08;26.10;1.00
44843;DHT22;31884;52.538;13.820;2023-05-18T07:39:33;23.80;1.00
44843;DHT22;31884;52.538;13.820;2023-05-18T07:41:59;23.50;1.00
44843;DHT22;31884;52.538;13.820;2023-05-18T07:44:26;24.20;1.00
44843;DHT22;31884;52.538;13.820;2023-05-18T07:46:52;24.80;1.00
44843;DHT22;31884;52.538;13.820;2023-05-18T07:49:18;24.00;1.00
44843;DHT22;31884;52.538;13.820;2023-05-18T07:51:43;22.30;1.00
44843;DHT22;31884;52.538;13.820;2023-05-18T07:54:09;21.30;1.00
44843;DHT22;31884;52.538;13.820;2023-05-18T07:56:35;20.80;1.40
44843;DHT22;31884;52.538;13.820;2023-05-18T07:59:01;20.50;1.30
44843;DHT22;31884;52.538;13.820;2023-05-18T08:01:26;20.30;1.10
44843;DHT22;31884;52.538;13.820;2023-05-18T08:03:56;20.00;1.70
44843;DHT22;31884;52.538;13.820;2023-05-18T08:06:22;19.70;2.20
44843;DHT22;31884;52.538;13.820;2023-05-18T08:08:48;19.30;2.90
44843;DHT22;31884;52.538;13.820;2023-05-18T08:11:14;19.00;3.40
44843;DHT22;31884;52.538;13.820;2023-05-18T08:13:39;18.40;3.90
44843;DHT22;31884;52.538;13.820;2023-05-18T08:16:05;18.20;4.30
44843;DHT22;31884;52.538;13.820;2023-05-18T08:18:31;18.00;4.70
44843;DHT22;31884;52.538;13.820;2023-05-18T08:20:58;17.80;4.80
44843;DHT22;31884;52.538;13.820;2023-05-18T08:23:24;17.90;4.60
44843;DHT22;31884;52.538;13.820;2023-05-18T08:25:50;18.10;5.60
44843;DHT22;31884;52.538;13.820;2023-05-18T08:28:15;18.00;4.80
44843;DHT22;31884;52.538;13.820;2023-05-18T08:30:41;18.10;4.90
44843;DHT22;31884;52.538;13.820;2023-05-18T08:33:08;17.80;6.10
44843;DHT22;31884;52.538;13.820;2023-05-18T08:35:33;17.70;6.00
44843;DHT22;31884;52.538;13.820;2023-05-18T08:37:59;17.60;6.70
44843;DHT22;31884;52.538;13.820;2023-05-18T08:40:35;17.40;6.60
44843;DHT22;31884;52.538;13.820;2023-05-18T08:43:28;17.60;7.20
44843;DHT22;31884;52.538;13.820;2023-05-18T08:46:04;17.80;6.70
44843;DHT22;31884;52.538;13.820;2023-05-18T08:48:32;18.10;5.80
44843;DHT22;31884;52.538;13.820;2023-05-18T08:51:01;18.20;5.60
44843;DHT22;31884;52.538;13.820;2023-05-18T08:53:31;18.40;5.40
44843;DHT22;31884;52.538;13.820;2023-05-18T08:55:58;18.20;5.80
44843;DHT22;31884;52.538;13.820;2023-05-18T08:58:35;17.80;6.20
44843;DHT22;31884;52.538;13.820;2023-05-18T09:01:03;17.50;6.90
44843;DHT22;31884;52.538;13.820;2023-05-18T09:03:29;17.30;7.20
44843;DHT22;31884;52.538;13.820;2023-05-18T09:05:58;17.70;7.70
44843;DHT22;31884;52.538;13.820;2023-05-18T09:08:24;18.20;7.70
44843;DHT22;31884;52.538;13.820;2023-05-18T09:10:50;18.60;7.00
44843;DHT22;31884;52.538;13.820;2023-05-18T09:13:18;18.20;6.90
44843;DHT22;31884;52.538;13.820;2023-05-18T09:15:47;18.00;7.70
44843;DHT22;31884;52.538;13.820;2023-05-18T09:18:13;18.20;7.10
44843;DHT22;31884;52.538;13.820;2023-05-18T09:20:39;18.40;6.50
44843;DHT22;31884;52.538;13.820;2023-05-18T09:23:04;18.50;6.20
44843;DHT22;31884;52.538;13.820;2023-05-18T09:25:31;18.10;6.40
44843;DHT22;31884;52.538;13.820;2023-05-18T09:27:59;17.70;6.50
44843;DHT22;31884;52.538;13.820;2023-05-18T09:30:25;17.80;6.50
44843;DHT22;31884;52.538;13.820;2023-05-18T09:32:51;18.10;6.10
44843;DHT22;31884;52.538;13.820;2023-05-18T09:35:18;18.20;5.80
44843;DHT22;31884;52.538;13.820;2023-05-18T09:37:43;17.90;5.70
44843;DHT22;31884;52.538;13.820;2023-05-18T09:40:09;17.60;6.20
44843;DHT22;31884;52.538;13.820;2023-05-18T09:45:25;17.70;6.60
44843;DHT22;31884;52.538;13.820;2023-05-18T09:47:53;17.60;7.10
44843;DHT22;31884;52.538;13.820;2023-05-18T09:50:19;17.70;6.80
44843;DHT22;31884;52.538;13.820;2023-05-18T09:52:47;18.10;6.20
44843;DHT22;31884;52.538;13.820;2023-05-18T09:55:18;18.50;5.90
44843;DHT22;31884;52.538;13.820;2023-05-18T09:57:45;18.30;5.70
44843;DHT22;31884;52.538;13.820;2023-05-18T10:00:13;17.80;6.30
44843;DHT22;31884;52.538;13.820;2023-05-18T10:02:41;17.60;7.20
44843;DHT22;31884;52.538;13.820;2023-05-18T10:05:27;17.70;6.70
44843;DHT22;31884;52.538;13.820;2023-05-18T10:07:57;17.90;6.40
44843;DHT22;31884;52.538;13.820;2023-05-18T10:10:28;18.10;6.10
44843;DHT22;31884;52.538;13.820;2023-05-18T10:12:54;17.90;7.40
44843;DHT22;31884;52.538;13.820;2023-05-18T10:15:22;17.30;7.30
44843;DHT22;31884;52.538;13.820;2023-05-18T10:17:49;17.00;8.00
44843;DHT22;31884;52.538;13.820;2023-05-18T10:20:20;16.60;9.00
44843;DHT22;31884;52.538;13.820;2023-05-18T10:22:49;16.40;9.00
44843;DHT22;31884;52.538;13.820;2023-05-18T10:25:24;16.20;9.40
44843;DHT22;31884;52.538;13.820;2023-05-18T10:27:54;16.10;10.40
44843;DHT22;31884;52.538;13.820;2023-05-18T10:30:20;16.30;9.50
44843;DHT22;31884;52.538;13.820;2023-05-18T10:32:48;16.50;9.10
44843;DHT22;31884;52.538;13.820;2023-05-18T10:35:15;16.60;8.40
44843;DHT22;31884;52.538;13.820;2023-05-18T10:37:45;16.90;8.40
44843;DHT22;31884;52.538;13.820;2023-05-18T10:40:13;17.20;7.20
44843;DHT22;31884;52.538;13.820;2023-05-18T10:42:41;17.60;6.80
44843;DHT22;31884;52.538;13.820;2023-05-18T10:45:08;17.60;6.90
44843;DHT22;31884;52.538;13.820;2023-05-18T10:47:36;17.10;8.10
44843;DHT22;31884;52.538;13.820;2023-05-18T10:50:07;16.40;8.40
44843;DHT22;31884;52.538;13.820;2023-05-18T10:52:36;16.10;9.90
44843;DHT22;31884;52.538;13.820;2023-05-18T10:55:05;16.00;9.10
44843;DHT22;31884;52.538;13.820;2023-05-18T10:57:39;16.00;9.30
44843;DHT22;31884;52.538;13.820;2023-05-18T11:00:07;16.00;8.70
44843;DHT22;31884;52.538;13.820;2023-05-18T11:02:39;16.00;9.00
44843;DHT22;31884;52.538;13.820;2023-05-18T11:05:09;16.10;8.50
44843;DHT22;31884;52.538;13.820;2023-05-18T11:07:36;16.50;8.30
44843;DHT22;31884;52.538;13.820;2023-05-18T11:10:09;16.90;7.70
44843;DHT22;31884;52.538;13.820;2023-05-18T11:12:39;17.30;6.90
44843;DHT22;31884;52.538;13.820;2023-05-18T11:15:05;17.30;6.80
44843;DHT22;31884;52.538;13.820;2023-05-18T11:17:31;17.30;7.10
44843;DHT22;31884;52.538;13.820;2023-05-18T11:27:54;17.10;7.60
44843;DHT22;31884;52.538;13.820;2023-05-18T11:30:30;16.80;8.20
44843;DHT22;31884;52.538;13.820;2023-05-18T11:35:54;16.50;8.00
44843;DHT22;31884;52.538;13.820;2023-05-18T11:38:21;16.50;7.90
44843;DHT22;31884;52.538;13.820;2023-05-18T11:40:48;16.30;8.00
44843;DHT22;31884;52.538;13.820;2023-05-18T11:43:23;16.30;9.20
44843;DHT22;31884;52.538;13.820;2023-05-18T11:45:53;16.20;8.10
44843;DHT22;31884;52.538;13.820;2023-05-18T11:48:27;16.30;8.40
44843;DHT22;31884;52.538;13.820;2023-05-18T11:50:56;16.40;8.20
44843;DHT22;31884;52.538;13.820;2023-05-18T11:53:25;16.50;8.40
44843;DHT22;31884;52.538;13.820;2023-05-18T11:55:52;16.70;8.50
44843;DHT22;31884;52.538;13.820;2023-05-18T11:58:24;16.50;9.30
44843;DHT22;31884;52.538;13.820;2023-05-18T12:00:50;16.20;9.30
44843;DHT22;31884;52.538;13.820;2023-05-18T12:03:16;16.00;9.50
44843;DHT22;31884;52.538;13.820;2023-05-18T12:05:45;16.00;9.40
44843;DHT22;31884;52.538;13.820;2023-05-18T12:08:19;15.90;10.10
44843;DHT22;31884;52.538;13.820;2023-05-18T12:10:47;16.00;9.80
44843;DHT22;31884;52.538;13.820;2023-05-18T12:13:16;16.30;9.30
44843;DHT22;31884;52.538;13.820;2023-05-18T12:15:42;16.20;9.30
44843;DHT22;31884;52.538;13.820;2023-05-18T12:18:10;16.40;8.90
44843;DHT22;31884;52.538;13.820;2023-05-18T12:20:38;16.50;8.70
44843;DHT22;31884;52.538;13.820;2023-05-18T12:23:05;16.60;8.80
44843;DHT22;31884;52.538;13.820;2023-05-18T12:25:31;16.60;9.00
44843;DHT22;31884;52.538;13.820;2023-05-18T12:27:56;16.50;9.40
44843;DHT22;31884;52.538;13.820;2023-05-18T12:30:24;16.40;8.10
44843;DHT22;31884;52.538;13.820;2023-05-18T12:32:54;16.30;8.70
44843;DHT22;31884;52.538;13.820;2023-05-18T12:35:22;16.40;8.40
44843;DHT22;31884;52.538;13.820;2023-05-18T12:37:49;16.40;8.80
44843;DHT22;31884;52.538;13.820;2023-05-18T12:40:16;16.40;9.70
44843;DHT22;31884;52.538;13.820;2023-05-18T12:42:56;16.10;8.00
44843;DHT22;31884;52.538;13.820;2023-05-18T12:45:33;15.90;8.90
44843;DHT22;31884;52.538;13.820;2023-05-18T12:48:06;15.90;8.50
44843;DHT22;31884;52.538;13.820;2023-05-18T12:50:32;15.90;8.50
44843;DHT22;31884;52.538;13.820;2023-05-18T12:53:00;15.90;9.40
44843;DHT22;31884;52.538;13.820;2023-05-18T12:55:29;16.00;9.70
44843;DHT22;31884;52.538;13.820;2023-05-18T12:58:14;15.90;8.60
44843;DHT22;31884;52.538;13.820;2023-05-18T13:00:46;15.90;8.80
44843;DHT22;31884;52.538;13.820;2023-05-18T13:03:16;15.90;8.50
44843;DHT22;31884;52.538;13.820;2023-05-18T13:05:44;15.90;8.10
44843;DHT22;31884;52.538;13.820;2023-05-18T13:08:13;15.90;8.90
44843;DHT22;31884;52.538;13.820;2023-05-18T13:10:44;15.80;9.40
44843;DHT22;31884;52.538;13.820;2023-05-18T13:13:14;15.90;8.90
44843;DHT22;31884;52.538;13.820;2023-05-18T13:15:40;16.10;9.20
44843;DHT22;31884;52.538;13.820;2023-05-18T13:18:08;16.10;7.60
44843;DHT22;31884;52.538;13.820;2023-05-18T13:23:09;16.10;7.70
44843;DHT22;31884;52.538;13.820;2023-05-18T13:25:35;16.00;8.30
44843;DHT22;31884;52.538;13.820;2023-05-18T13:28:04;16.10;8.40
44843;DHT22;31884;52.538;13.820;2023-05-18T13:30:30;16.20;8.20
44843;DHT22;31884;52.538;13.820;2023-05-18T13:32:56;16.20;8.90
44843;DHT22;31884;52.538;13.820;2023-05-18T13:35:22;16.20;9.10
44843;DHT22;31884;52.538;13.820;2023-05-18T13:37:49;16.00;9.40
44843;DHT22;31884;52.538;13.820;2023-05-18T13:40:15;16.00;9.50
44843;DHT22;31884;52.538;13.820;2023-05-18T13:42:43;16.10;8.70
44843;DHT22;31884;52.538;13.820;2023-05-18T13:45:10;16.10;9.30
44843;DHT22;31884;52.538;13.820;2023-05-18T13:47:36;16.10;8.80
44843;DHT22;31884;52.538;13.820;2023-05-18T13:50:02;16.10;8.80
44843;DHT22;31884;52.538;13.820;2023-05-18T13:52:27;16.30;9.30
44843;DHT22;31884;52.538;13.820;2023-05-18T13:54:53;16.40;9.30
44843;DHT22;31884;52.538;13.820;2023-05-18T13:57:19;16.30;8.00
44843;DHT22;31884;52.538;13.820;2023-05-18T13:59:44;16.20;8.50
44843;DHT22;31884;52.538;13.820;2023-05-18T14:02:11;16.10;8.10
44843;DHT22;31884;52.538;13.820;2023-05-18T14:04:36;16.10;8.00
44843;DHT22;31884;52.538;13.820;2023-05-18T14:07:02;16.00;8.10
44843;DHT22;31884;52.538;13.820;2023-05-18T14:09:27;16.10;8.20
44843;DHT22;31884;52.538;13.820;2023-05-18T14:11:54;16.20;8.10
44843;DHT22;31884;52.538;13.820;2023-05-18T14:14:21;16.20;8.00
44843;DHT22;31884;52.538;13.820;2023-05-18T14:16:47;16.20;8.60
44843;DHT22;31884;52.538;13.820;2023-05-18T14:19:12;16.40;8.10
44843;DHT22;31884;52.538;13.820;2023-05-18T14:21:39;16.40;8.00
44843;DHT22;31884;52.538;13.820;2023-05-18T14:24:05;16.30;6.10
44843;DHT22;31884;52.538;13.820;2023-05-18T14:26:33;16.30;6.90
44843;DHT22;31884;52.538;13.820;2023-05-18T14:29:00;16.50;7.40
44843;DHT22;31884;52.538;13.820;2023-05-18T14:31:26;16.50;7.10
44843;DHT22;31884;52.538;13.820;2023-05-18T14:33:51;16.70;7.40
44843;DHT22;31884;52.538;13.820;2023-05-18T14:36:16;16.60;6.70
44843;DHT22;31884;52.538;13.820;2023-05-18T14:38:42;16.70;7.20
44843;DHT22;31884;52.538;13.820;2023-05-18T14:41:08;16.70;7.40
44843;DHT22;31884;52.538;13.820;2023-05-18T14:43:33;16.80;7.80
44843;DHT22;31884;52.538;13.820;2023-05-18T14:46:00;16.70;7.60
44843;DHT22;31884;52.538;13.820;2023-05-18T14:48:26;16.60;7.90
44843;DHT22;31884;52.538;13.820;2023-05-18T14:50:51;16.60;8.20
44843;DHT22;31884;52.538;13.820;2023-05-18T14:53:17;16.50;8.50
44843;DHT22;31884;52.538;13.820;2023-05-18T14:55:42;16.40;8.30
44843;DHT22;31884;52.538;13.820;2023-05-18T14:58:08;16.40;9.10
44843;DHT22;31884;52.538;13.820;2023-05-18T15:00:40;16.30;8.80
44843;DHT22;31884;52.538;13.820;2023-05-18T15:03:06;16.30;9.10
44843;DHT22;31884;52.538;13.820;2023-05-18T15:05:32;16.20;8.70
44843;DHT22;31884;52.538;13.820;2023-05-18T15:07:58;16.30;9.00
44843;DHT22;31884;52.538;13.820;2023-05-18T15:10:23;16.20;8.70
44843;DHT22;31884;52.538;13.820;2023-05-18T15:12:50;16.20;9.20
44843;DHT22;31884;52.538;13.820;2023-05-18T15:15:16;16.20;8.80
44843;DHT22;31884;52.538;13.820;2023-05-18T15:17:42;16.20;9.00
44843;DHT22;31884;52.538;13.820;2023-05-18T15:20:08;16.20;9.20
44843;DHT22;31884;52.538;13.820;2023-05-18T15:22:35;16.20;9.10
44843;DHT22;31884;52.538;13.820;2023-05-18T15:25:05;16.20;9.60
44843;DHT22;31884;52.538;13.820;2023-05-18T15:27:33;16.20;9.40
44843;DHT22;31884;52.538;13.820;2023-05-18T15:30:01;16.20;9.10
44843;DHT22;31884;52.538;13.820;2023-05-18T15:32:27;16.10;9.00
44843;DHT22;31884;52.538;13.820;2023-05-18T15:34:53;16.00;9.50
44843;DHT22;31884;52.538;13.820;2023-05-18T15:37:19;15.90;9.00
44843;DHT22;31884;52.538;13.820;2023-05-18T15:39:46;15.90;9.40
44843;DHT22;31884;52.538;13.820;2023-05-18T15:42:11;15.90;9.90
44843;DHT22;31884;52.538;13.820;2023-05-18T15:44:37;15.90;9.00
44843;DHT22;31884;52.538;13.820;2023-05-18T15:47:03;15.90;9.90
44843;DHT22;31884;52.538;13.820;2023-05-18T15:49:31;15.80;9.70
44843;DHT22;31884;52.538;13.820;2023-05-18T15:51:56;15.80;9.40
44843;DHT22;31884;52.538;13.820;2023-05-18T15:54:22;15.80;9.30
44843;DHT22;31884;52.538;13.820;2023-05-18T15:56:48;15.80;9.40